KBVY/BVY METAR and TAF weather

Enter ICAO airport designator
Station Type Date Time Source
KBVY METAR 2019/08/19 21:53 UTC NOAA

KBVY 192153Z 23008KT 10SM CLR 29/22 A2987 RMK AO2 RAB02E25 SLP109 P0000 T02890222


Station Type Date Time Source
KBVY Decoded METAR 2019/08/19 21:53 UTC NOAA

BEVERLY MUNICIPAL AIRPORT, MA, United States (KBVY) 42-35N 070-55W 28M
Aug 19, 2019 - 05:53 PM EDT / 2019.08.19 2153 UTC
Wind: from the SW (230 degrees) at 9 MPH (8 KT):0
Visibility: 10 mile(s):0
Sky conditions: clear
Precipitation last hour: A trace
Temperature: 84.0 F (28.9 C)
Dew Point: 72.0 F (22.2 C)
Relative Humidity: 67%
Pressure (altimeter): 29.87 in. Hg (1011 hPa)
ob: KBVY 192153Z 23008KT 10SM CLR 29/22 A2987 RMK AO2 RAB02E25 SLP109 P0000 T02890222
cycle: 22

Station Type Date Time Source
KBVY TAF UTC NOAA

Error!

Example: see airport list